createdAt,value
2023-03-31T00:03:13.448Z,4.88
2023-03-31T00:08:14.861Z,10.18
2023-03-31T00:13:16.952Z,6.78
2023-03-31T00:18:18.282Z,7.63
2023-03-31T00:23:27.961Z,4.88
2023-03-31T00:28:29.339Z,7.35
2023-03-31T00:33:31.043Z,9.70
2023-03-31T00:38:33.729Z,7.65
2023-03-31T00:43:37.458Z,11.25
2023-03-31T00:48:39.743Z,5.10
2023-03-31T00:53:41.486Z,4.55
2023-03-31T00:58:44.646Z,9.07
2023-03-31T01:03:47.225Z,9.25
2023-03-31T01:08:51.297Z,6.43
2023-03-31T01:13:56.083Z,9.27
2023-03-31T01:18:57.654Z,7.68
2023-03-31T01:24:24.079Z,14.05
2023-03-31T01:29:54.802Z,12.43
2023-03-31T01:35:28.515Z,11.30
2023-03-31T01:40:52.483Z,10.23
2023-03-31T01:46:14.987Z,8.07
2023-03-31T01:51:22.451Z,6.72
2023-03-31T02:01:50.147Z,7.38
2023-03-31T02:06:56.536Z,10.48
2023-03-31T02:11:59.934Z,8.32
2023-03-31T02:17:03.714Z,9.23
2023-03-31T02:22:07.608Z,10.55
2023-03-31T02:27:25.738Z,7.40
2023-03-31T02:32:32.938Z,8.02
2023-03-31T02:37:34.583Z,7.82
2023-03-31T02:42:40.544Z,7.40
2023-03-31T02:47:41.983Z,6.13
2023-03-31T02:52:57.944Z,8.35
2023-03-31T02:58:34.480Z,5.25
2023-03-31T03:03:44.408Z,5.82
2023-03-31T03:08:55.458Z,4.40
2023-03-31T03:14:24.584Z,8.40
2023-03-31T03:19:26.393Z,8.80
2023-03-31T03:24:29.576Z,8.45
2023-03-31T03:29:31.417Z,5.60
2023-03-31T03:34:32.810Z,12.00
2023-03-31T03:39:34.160Z,5.00
2023-03-31T03:44:35.488Z,16.77
2023-03-31T03:49:36.937Z,11.32
2023-03-31T03:54:38.289Z,8.48
2023-03-31T03:59:39.626Z,12.93
2023-03-31T04:04:41.018Z,5.05
2023-03-31T04:09:42.431Z,8.98
2023-03-31T04:14:43.801Z,11.60
2023-03-31T04:19:50.575Z,7.88
2023-03-31T04:24:52.793Z,8.30
2023-03-31T04:29:56.935Z,8.82
2023-03-31T04:35:03.448Z,6.65
2023-03-31T04:40:08.497Z,4.90
2023-03-31T04:45:13.320Z,10.65
2023-03-31T04:50:16.980Z,11.98
2023-03-31T04:55:18.876Z,8.43
2023-03-31T05:00:21.090Z,8.32
2023-03-31T05:05:22.679Z,13.52
2023-03-31T05:10:24.319Z,8.10
2023-03-31T05:15:25.776Z,8.93
2023-03-31T05:20:27.214Z,11.77
2023-03-31T05:25:32.764Z,10.88
2023-03-31T05:30:34.163Z,13.63
2023-03-31T05:35:35.636Z,15.18
2023-03-31T05:40:37.009Z,10.77
2023-03-31T05:45:38.341Z,10.57
2023-03-31T05:50:39.760Z,8.45
2023-03-31T05:55:41.189Z,14.32
2023-03-31T06:00:44.595Z,12.85
2023-03-31T06:05:49.085Z,9.98
2023-03-31T06:10:50.968Z,16.17
2023-03-31T06:15:54.673Z,7.80
2023-03-31T06:20:57.095Z,15.55
2023-03-31T06:26:04.768Z,14.98
2023-03-31T06:31:12.647Z,10.35
2023-03-31T06:36:16.911Z,9.65
2023-03-31T06:41:20.591Z,7.00
2023-03-31T06:46:22.039Z,8.98
2023-03-31T06:51:23.488Z,12.57
2023-03-31T06:56:24.934Z,12.43
2023-03-31T07:01:26.361Z,11.80
2023-03-31T07:06:27.797Z,11.75
2023-03-31T07:11:29.142Z,12.88
2023-03-31T07:16:31.445Z,15.93
2023-03-31T07:21:32.891Z,13.32
2023-03-31T07:26:34.285Z,11.73
2023-03-31T07:31:35.765Z,8.95
2023-03-31T07:36:37.236Z,12.00
2023-03-31T07:41:38.889Z,9.52
2023-03-31T07:46:40.446Z,10.65
2023-03-31T07:51:41.973Z,7.93
2023-03-31T07:56:43.331Z,12.13
2023-03-31T08:01:45.181Z,5.70
2023-03-31T08:06:47.412Z,7.05
2023-03-31T08:11:48.959Z,6.60
2023-03-31T08:16:51.510Z,4.85
2023-03-31T08:21:53.057Z,7.78
2023-03-31T08:26:54.438Z,15.23
2023-03-31T08:31:55.789Z,8.07
2023-03-31T08:36:57.126Z,7.53
2023-03-31T08:42:02.753Z,7.47
2023-03-31T08:47:07.292Z,6.18
2023-03-31T08:52:15.549Z,5.00
2023-03-31T08:57:28.196Z,4.25
2023-03-31T09:03:06.493Z,4.18
2023-03-31T09:08:22.444Z,5.43
2023-03-31T09:13:46.664Z,4.90
2023-03-31T09:18:48.076Z,4.95
2023-03-31T09:23:57.421Z,5.00
2023-03-31T09:29:00.839Z,5.32
2023-03-31T09:34:14.383Z,9.18
2023-03-31T09:39:15.998Z,5.00
2023-03-31T09:44:24.705Z,6.05
2023-03-31T09:49:29.023Z,4.53
2023-03-31T09:54:47.928Z,4.70
2023-03-31T09:59:51.510Z,3.03
2023-03-31T10:04:52.929Z,3.78
2023-03-31T10:09:55.487Z,5.40
2023-03-31T10:15:26.848Z,4.93
2023-03-31T10:20:37.106Z,5.75
2023-03-31T10:25:38.628Z,5.18
2023-03-31T10:30:41.884Z,6.88
2023-03-31T10:35:43.533Z,13.45
2023-03-31T10:40:55.008Z,3.30
2023-03-31T10:56:52.756Z,3.70
2023-03-31T11:02:05.589Z,4.07
2023-03-31T11:07:29.274Z,3.13
2023-03-31T11:18:19.911Z,4.82
2023-03-31T11:23:53.538Z,6.47
2023-03-31T11:29:17.161Z,4.55
2023-03-31T11:34:36.756Z,4.25
2023-03-31T11:39:57.200Z,2.65
2023-03-31T11:45:16.632Z,6.07
2023-03-31T11:50:26.570Z,8.10
2023-03-31T11:55:31.610Z,2.00
2023-03-31T12:00:44.770Z,2.58
2023-03-31T12:05:51.547Z,5.90
2023-03-31T12:11:02.593Z,2.50
2023-03-31T12:16:34.169Z,6.13
2023-03-31T12:22:07.792Z,6.35
2023-03-31T12:27:37.846Z,8.45
2023-03-31T12:32:49.493Z,4.45
2023-03-31T12:38:09.208Z,7.85
2023-03-31T12:43:32.296Z,4.72
2023-03-31T12:49:10.095Z,7.00
2023-03-31T12:54:54.488Z,5.40
2023-03-31T13:00:12.442Z,4.18
2023-03-31T13:05:39.028Z,3.08
2023-03-31T13:11:00.856Z,3.50
2023-03-31T13:16:02.732Z,6.05
2023-03-31T13:21:06.249Z,2.85
2023-03-31T13:26:33.899Z,2.17
2023-03-31T13:32:00.270Z,3.78
2023-03-31T13:37:44.849Z,4.85
2023-03-31T13:42:58.110Z,6.18
2023-03-31T13:48:27.736Z,3.45
2023-03-31T13:54:03.335Z,9.20
2023-03-31T13:59:42.302Z,8.60
2023-03-31T14:05:25.290Z,2.05
2023-03-31T14:10:35.198Z,2.42
2023-03-31T14:15:40.449Z,3.08
2023-03-31T14:20:53.190Z,1.98
2023-03-31T14:26:07.002Z,0.98
2023-03-31T14:31:35.088Z,1.98
2023-03-31T14:36:57.920Z,3.10
2023-03-31T14:42:04.002Z,4.45
2023-03-31T14:47:06.150Z,2.70
2023-03-31T14:52:25.846Z,1.65
2023-03-31T14:57:38.067Z,1.73
2023-03-31T15:02:44.570Z,2.50
2023-03-31T15:07:46.051Z,5.63
2023-03-31T15:12:50.012Z,5.20
2023-03-31T15:17:51.613Z,3.92
2023-03-31T15:22:54.628Z,6.55
2023-03-31T15:28:05.117Z,6.57
2023-03-31T15:33:18.860Z,3.45
2023-03-31T15:38:21.801Z,4.35
2023-03-31T15:43:30.909Z,0.85
2023-03-31T15:48:37.772Z,2.70
2023-03-31T15:53:53.492Z,1.30
2023-03-31T15:59:03.171Z,2.63
2023-03-31T16:04:10.442Z,3.20
2023-03-31T16:14:38.847Z,2.17
2023-03-31T16:19:51.624Z,4.63
2023-03-31T16:24:53.068Z,6.70
2023-03-31T16:30:07.340Z,2.58
2023-03-31T16:35:08.840Z,2.67
2023-03-31T16:40:10.815Z,3.20
2023-03-31T16:45:16.674Z,3.92
2023-03-31T16:50:18.082Z,2.25
2023-03-31T16:55:19.420Z,7.45
2023-03-31T17:00:21.052Z,3.08
2023-03-31T17:05:22.498Z,3.47
2023-03-31T17:10:24.294Z,6.75
2023-03-31T17:15:25.888Z,9.35
2023-03-31T17:20:27.474Z,9.25
2023-03-31T17:25:28.985Z,7.20
2023-03-31T17:30:32.031Z,9.45
2023-03-31T17:35:33.453Z,4.90
2023-03-31T17:40:34.976Z,4.15
2023-03-31T17:45:36.611Z,2.95
2023-03-31T17:50:38.332Z,5.28
2023-03-31T17:55:39.851Z,4.97
2023-03-31T18:00:41.254Z,6.70
2023-03-31T18:05:43.253Z,8.40
2023-03-31T18:10:44.578Z,6.25
2023-03-31T18:15:49.077Z,9.20
2023-03-31T18:20:50.743Z,5.22
2023-03-31T18:25:52.949Z,5.68
2023-03-31T18:30:54.420Z,8.73
2023-03-31T18:35:58.471Z,6.07
2023-03-31T18:41:00.312Z,10.20
2023-03-31T18:46:01.963Z,7.05
2023-03-31T18:51:04.423Z,7.10
2023-03-31T18:56:06.165Z,5.72
2023-03-31T19:01:07.660Z,4.55
2023-03-31T19:06:12.673Z,4.75
2023-03-31T19:11:16.002Z,3.70
2023-03-31T19:16:18.506Z,7.32
2023-03-31T19:21:20.814Z,2.10
2023-03-31T19:26:22.766Z,6.07
2023-03-31T19:31:24.298Z,6.65
2023-03-31T19:36:25.923Z,4.03
2023-03-31T19:41:28.964Z,3.67
2023-03-31T19:46:30.701Z,4.97
2023-03-31T19:51:32.230Z,1.00
2023-03-31T19:56:33.956Z,3.85
2023-03-31T20:01:36.301Z,4.43
2023-03-31T20:06:37.800Z,4.75
2023-03-31T20:11:40.008Z,3.00
2023-03-31T20:16:41.477Z,3.08
2023-03-31T20:21:44.187Z,1.88
2023-03-31T20:26:45.746Z,1.98
2023-03-31T20:31:47.271Z,6.35
2023-03-31T20:36:49.259Z,3.70
2023-03-31T20:41:51.813Z,3.75
2023-03-31T20:46:53.322Z,4.82
2023-03-31T20:51:56.386Z,2.70
2023-03-31T20:56:58.102Z,3.63
2023-03-31T21:01:59.839Z,3.50
2023-03-31T21:07:01.499Z,3.05
2023-03-31T21:12:04.756Z,1.75
2023-03-31T21:17:06.403Z,2.95
2023-03-31T21:22:07.920Z,3.42
2023-03-31T21:27:09.255Z,2.47
2023-03-31T21:32:10.701Z,4.15
2023-03-31T21:37:12.151Z,1.88
2023-03-31T21:42:13.886Z,2.60
2023-03-31T21:47:15.242Z,3.33
2023-03-31T21:52:17.087Z,4.05
2023-03-31T21:57:18.504Z,4.32
2023-03-31T22:02:19.934Z,7.10
2023-03-31T22:07:21.281Z,4.55
2023-03-31T22:12:22.793Z,6.50
2023-03-31T22:17:25.841Z,3.22
2023-03-31T22:22:27.367Z,3.42
2023-03-31T22:27:28.764Z,3.35
2023-03-31T22:32:30.410Z,3.90
2023-03-31T22:37:32.127Z,3.05
2023-03-31T22:42:34.548Z,6.13
2023-03-31T22:47:36.246Z,3.10
2023-03-31T22:52:38.066Z,4.70
2023-03-31T22:57:39.516Z,3.40
2023-03-31T23:02:41.188Z,4.13
2023-03-31T23:07:43.075Z,1.65
2023-03-31T23:12:44.706Z,4.10
2023-03-31T23:17:46.108Z,5.95
2023-03-31T23:22:47.569Z,2.97
2023-03-31T23:27:49.251Z,3.30
2023-03-31T23:32:50.611Z,1.00
2023-03-31T23:37:52.043Z,3.30
2023-03-31T23:42:53.438Z,3.53
2023-03-31T23:47:54.852Z,1.45
2023-03-31T23:52:59.261Z,5.82
2023-03-31T23:58:00.657Z,7.07
